sensor_id;sensor_type;location;lat;lon;timestamp;pressure;altitude;pressure_sealevel;temperature;humidity
65800;BME280;52544;48.116;11.660;2023-02-02T00:01:38;96025.94;;;4.15;73.87
65800;BME280;52544;48.116;11.660;2023-02-02T00:04:04;96020.56;;;4.18;74.43
65800;BME280;52544;48.116;11.660;2023-02-02T00:06:30;96014.06;;;4.25;73.77
65800;BME280;52544;48.116;11.660;2023-02-02T00:08:58;96025.78;;;4.18;74.68
65800;BME280;52544;48.116;11.660;2023-02-02T00:11:24;96026.88;;;4.14;74.84
65800;BME280;52544;48.116;11.660;2023-02-02T00:13:50;96024.25;;;4.14;75.77
65800;BME280;52544;48.116;11.660;2023-02-02T00:18:50;96019.53;;;4.05;77.45
65800;BME280;52544;48.116;11.660;2023-02-02T00:21:15;96020.22;;;4.09;76.57
65800;BME280;52544;48.116;11.660;2023-02-02T00:23:41;96016.91;;;4.05;76.67
65800;BME280;52544;48.116;11.660;2023-02-02T00:26:08;96021.78;;;3.95;77.35
65800;BME280;52544;48.116;11.660;2023-02-02T00:28:33;96010.03;;;4.03;77.49
65800;BME280;52544;48.116;11.660;2023-02-02T00:30:59;96018.97;;;3.98;78.02
65800;BME280;52544;48.116;11.660;2023-02-02T00:33:24;96006.50;;;4.04;77.13
65800;BME280;52544;48.116;11.660;2023-02-02T00:35:53;96017.84;;;4.04;77.77
65800;BME280;52544;48.116;11.660;2023-02-02T00:38:18;96014.44;;;4.02;77.17
65800;BME280;52544;48.116;11.660;2023-02-02T00:40:44;96005.63;;;4.03;77.21
65800;BME280;52544;48.116;11.660;2023-02-02T00:43:09;96006.41;;;4.05;77.11
65800;BME280;52544;48.116;11.660;2023-02-02T00:45:36;96011.06;;;4.00;78.24
65800;BME280;52544;48.116;11.660;2023-02-02T00:48:02;96001.44;;;4.00;77.93
65800;BME280;52544;48.116;11.660;2023-02-02T00:50:27;96010.28;;;3.98;78.51
65800;BME280;52544;48.116;11.660;2023-02-02T00:52:53;96008.44;;;4.00;78.91
65800;BME280;52544;48.116;11.660;2023-02-02T00:55:19;95993.97;;;3.93;79.65
65800;BME280;52544;48.116;11.660;2023-02-02T00:57:44;95996.84;;;3.88;79.81
65800;BME280;52544;48.116;11.660;2023-02-02T01:00:15;96008.25;;;3.87;80.21
65800;BME280;52544;48.116;11.660;2023-02-02T01:02:41;96000.16;;;3.92;80.19
65800;BME280;52544;48.116;11.660;2023-02-02T01:05:08;96008.28;;;3.86;81.16
65800;BME280;52544;48.116;11.660;2023-02-02T01:07:33;96006.09;;;3.78;81.95
65800;BME280;52544;48.116;11.660;2023-02-02T01:09:59;95999.34;;;3.74;83.09
65800;BME280;52544;48.116;11.660;2023-02-02T01:12:24;96009.81;;;3.74;84.04
65800;BME280;52544;48.116;11.660;2023-02-02T01:14:50;95982.09;;;3.70;84.67
65800;BME280;52544;48.116;11.660;2023-02-02T01:17:15;95994.63;;;3.63;85.33
65800;BME280;52544;48.116;11.660;2023-02-02T01:19:41;95990.34;;;3.62;86.75
65800;BME280;52544;48.116;11.660;2023-02-02T01:22:07;96002.97;;;3.54;87.70
65800;BME280;52544;48.116;11.660;2023-02-02T01:24:32;95997.97;;;3.49;87.77
65800;BME280;52544;48.116;11.660;2023-02-02T01:26:58;96005.22;;;3.44;88.49
65800;BME280;52544;48.116;11.660;2023-02-02T01:29:23;96004.81;;;3.52;88.01
65800;BME280;52544;48.116;11.660;2023-02-02T01:31:49;96008.50;;;3.48;87.74
65800;BME280;52544;48.116;11.660;2023-02-02T01:34:14;95990.81;;;3.53;88.05
65800;BME280;52544;48.116;11.660;2023-02-02T01:36:40;95985.63;;;3.51;87.80
65800;BME280;52544;48.116;11.660;2023-02-02T01:39:05;95983.72;;;3.55;87.33
65800;BME280;52544;48.116;11.660;2023-02-02T01:41:31;95989.88;;;3.54;87.01
65800;BME280;52544;48.116;11.660;2023-02-02T01:43:58;95971.47;;;3.56;86.80
65800;BME280;52544;48.116;11.660;2023-02-02T01:46:28;95973.56;;;3.66;85.63
65800;BME280;52544;48.116;11.660;2023-02-02T01:48:59;95970.31;;;3.61;85.39
65800;BME280;52544;48.116;11.660;2023-02-02T01:51:36;95970.94;;;3.66;84.32
65800;BME280;52544;48.116;11.660;2023-02-02T01:54:05;95967.97;;;3.72;84.30
65800;BME280;52544;48.116;11.660;2023-02-02T01:56:40;95965.44;;;3.71;85.06
65800;BME280;52544;48.116;11.660;2023-02-02T01:59:06;95961.06;;;3.71;84.38
65800;BME280;52544;48.116;11.660;2023-02-02T02:01:32;95961.81;;;3.73;84.00
65800;BME280;52544;48.116;11.660;2023-02-02T02:03:57;95967.97;;;3.72;83.44
65800;BME280;52544;48.116;11.660;2023-02-02T02:06:27;95967.03;;;3.73;83.23
65800;BME280;52544;48.116;11.660;2023-02-02T02:08:58;95952.72;;;3.81;82.13
65800;BME280;52544;48.116;11.660;2023-02-02T02:11:25;95964.13;;;3.80;82.59
65800;BME280;52544;48.116;11.660;2023-02-02T02:13:53;95965.91;;;3.79;82.45
65800;BME280;52544;48.116;11.660;2023-02-02T02:29:03;95961.16;;;3.86;81.26
65800;BME280;52544;48.116;11.660;2023-02-02T02:31:45;95967.69;;;3.79;82.38
65800;BME280;52544;48.116;11.660;2023-02-02T02:39:31;95962.34;;;3.80;82.29
65800;BME280;52544;48.116;11.660;2023-02-02T02:42:07;95968.56;;;3.78;82.72
65800;BME280;52544;48.116;11.660;2023-02-02T02:44:34;95952.88;;;3.78;82.06
65800;BME280;52544;48.116;11.660;2023-02-02T02:47:01;95964.13;;;3.80;82.58
65800;BME280;52544;48.116;11.660;2023-02-02T02:49:26;95975.97;;;3.87;81.89
65800;BME280;52544;48.116;11.660;2023-02-02T02:51:53;95965.41;;;3.88;81.45
65800;BME280;52544;48.116;11.660;2023-02-02T03:05:17;95942.78;;;3.87;81.35
65800;BME280;52544;48.116;11.660;2023-02-02T03:10:39;95940.75;;;3.92;80.48
65800;BME280;52544;48.116;11.660;2023-02-02T03:13:08;95962.53;;;3.93;81.06
65800;BME280;52544;48.116;11.660;2023-02-02T03:15:34;95952.91;;;3.93;80.83
65800;BME280;52544;48.116;11.660;2023-02-02T03:18:00;95949.44;;;3.93;80.87
65800;BME280;52544;48.116;11.660;2023-02-02T03:20:25;95966.25;;;3.89;81.36
65800;BME280;52544;48.116;11.660;2023-02-02T03:22:51;95969.72;;;3.89;81.98
65800;BME280;52544;48.116;11.660;2023-02-02T03:25:16;95977.66;;;3.88;83.52
65800;BME280;52544;48.116;11.660;2023-02-02T03:27:42;95970.28;;;3.79;86.71
65800;BME280;52544;48.116;11.660;2023-02-02T03:30:10;95967.91;;;3.74;86.70
65800;BME280;52544;48.116;11.660;2023-02-02T03:32:37;95972.47;;;3.70;85.83
65800;BME280;52544;48.116;11.660;2023-02-02T03:35:03;95970.75;;;3.69;86.12
65800;BME280;52544;48.116;11.660;2023-02-02T03:37:28;95970.75;;;3.69;86.49
65800;BME280;52544;48.116;11.660;2023-02-02T03:39:54;95967.03;;;3.73;87.16
65800;BME280;52544;48.116;11.660;2023-02-02T03:42:19;95976.16;;;3.66;88.02
65800;BME280;52544;48.116;11.660;2023-02-02T03:44:44;95967.72;;;3.61;89.71
65800;BME280;52544;48.116;11.660;2023-02-02T03:47:10;95975.09;;;3.53;90.90
65800;BME280;52544;48.116;11.660;2023-02-02T03:49:35;95983.09;;;3.50;92.35
65800;BME280;52544;48.116;11.660;2023-02-02T03:52:00;95969.25;;;3.48;91.68
65800;BME280;52544;48.116;11.660;2023-02-02T03:54:28;95982.19;;;3.51;90.75
65800;BME280;52544;48.116;11.660;2023-02-02T03:56:53;95977.63;;;3.55;91.06
65800;BME280;52544;48.116;11.660;2023-02-02T03:59:19;95969.88;;;3.53;90.78
65800;BME280;52544;48.116;11.660;2023-02-02T04:01:44;95981.94;;;3.56;90.87
65800;BME280;52544;48.116;11.660;2023-02-02T04:04:10;95973.00;;;3.60;89.46
65800;BME280;52544;48.116;11.660;2023-02-02T04:06:35;95971.09;;;3.63;89.50
65800;BME280;52544;48.116;11.660;2023-02-02T04:09:00;95966.69;;;3.64;89.03
65800;BME280;52544;48.116;11.660;2023-02-02T04:11:26;95959.84;;;3.61;89.29
65800;BME280;52544;48.116;11.660;2023-02-02T04:13:51;95967.38;;;3.67;88.86
65800;BME280;52544;48.116;11.660;2023-02-02T04:16:17;95969.25;;;3.65;89.48
65800;BME280;52544;48.116;11.660;2023-02-02T04:18:42;95962.84;;;3.71;89.09
65800;BME280;52544;48.116;11.660;2023-02-02T04:21:07;95967.38;;;3.67;89.89
65800;BME280;52544;48.116;11.660;2023-02-02T04:23:33;95973.56;;;3.66;90.16
65800;BME280;52544;48.116;11.660;2023-02-02T04:25:59;95972.47;;;3.70;89.61
65800;BME280;52544;48.116;11.660;2023-02-02T04:28:25;95982.16;;;3.68;90.20
65800;BME280;52544;48.116;11.660;2023-02-02T04:30:52;95995.56;;;3.62;90.83
65800;BME280;52544;48.116;11.660;2023-02-02T04:33:19;95976.84;;;3.70;90.27
65800;BME280;52544;48.116;11.660;2023-02-02T04:35:44;95979.53;;;3.68;90.14
65800;BME280;52544;48.116;11.660;2023-02-02T04:38:10;95977.50;;;3.73;89.51
65800;BME280;52544;48.116;11.660;2023-02-02T04:40:40;95994.84;;;3.76;90.69
65800;BME280;52544;48.116;11.660;2023-02-02T04:43:06;95989.69;;;3.74;90.72
65800;BME280;52544;48.116;11.660;2023-02-02T04:45:32;95981.31;;;3.68;93.35
65800;BME280;52544;48.116;11.660;2023-02-02T04:47:57;95973.00;;;3.60;93.86
65800;BME280;52544;48.116;11.660;2023-02-02T04:50:22;95986.78;;;3.63;94.13
65800;BME280;52544;48.116;11.660;2023-02-02T04:52:48;95985.25;;;3.59;93.69
65800;BME280;52544;48.116;11.660;2023-02-02T04:55:13;95981.78;;;3.59;92.49
65800;BME280;52544;48.116;11.660;2023-02-02T04:57:39;95989.41;;;3.63;91.27
65800;BME280;52544;48.116;11.660;2023-02-02T05:00:05;95975.97;;;3.69;90.88
65800;BME280;52544;48.116;11.660;2023-02-02T05:02:34;95974.31;;;3.68;89.92
65800;BME280;52544;48.116;11.660;2023-02-02T05:04:59;95979.84;;;3.80;89.26
65800;BME280;52544;48.116;11.660;2023-02-02T05:07:25;95998.16;;;3.80;88.62
65800;BME280;52544;48.116;11.660;2023-02-02T05:09:50;95999.69;;;3.84;87.86
65800;BME280;52544;48.116;11.660;2023-02-02T05:12:16;95994.47;;;3.84;88.44
65800;BME280;52544;48.116;11.660;2023-02-02T05:14:41;95988.88;;;3.90;87.75
65800;BME280;52544;48.116;11.660;2023-02-02T05:17:06;95985.38;;;3.91;87.80
65800;BME280;52544;48.116;11.660;2023-02-02T05:19:32;95996.13;;;3.85;88.11
65800;BME280;52544;48.116;11.660;2023-02-02T05:21:57;95989.91;;;3.87;88.40
65800;BME280;52544;48.116;11.660;2023-02-02T05:24:23;96001.22;;;3.88;89.76
65800;BME280;52544;48.116;11.660;2023-02-02T05:26:48;96007.31;;;3.88;89.23
65800;BME280;52544;48.116;11.660;2023-02-02T05:29:13;96001.97;;;3.90;88.41
65800;BME280;52544;48.116;11.660;2023-02-02T05:31:39;95996.06;;;3.86;89.75
65800;BME280;52544;48.116;11.660;2023-02-02T05:34:04;96001.97;;;3.90;89.56
65800;BME280;52544;48.116;11.660;2023-02-02T05:36:31;96001.53;;;3.82;90.52
65800;BME280;52544;48.116;11.660;2023-02-02T05:38:57;96010.47;;;3.78;91.53
65800;BME280;52544;48.116;11.660;2023-02-02T05:41:22;96012.19;;;3.79;92.27
65800;BME280;52544;48.116;11.660;2023-02-02T05:43:47;96001.84;;;3.75;92.01
65800;BME280;52544;48.116;11.660;2023-02-02T05:46:13;96013.09;;;3.78;92.56
65800;BME280;52544;48.116;11.660;2023-02-02T05:48:38;96006.31;;;3.73;93.59
65800;BME280;52544;48.116;11.660;2023-02-02T05:51:09;95983.09;;;3.67;94.40
65800;BME280;52544;48.116;11.660;2023-02-02T05:53:36;96006.50;;;3.70;92.86
65800;BME280;52544;48.116;11.660;2023-02-02T05:56:02;96012.34;;;3.75;93.12
65800;BME280;52544;48.116;11.660;2023-02-02T05:58:27;96021.97;;;3.75;93.08
65800;BME280;52544;48.116;11.660;2023-02-02T06:00:53;96023.97;;;3.70;94.83
65800;BME280;52544;48.116;11.660;2023-02-02T06:03:18;96031.88;;;3.68;94.35
65800;BME280;52544;48.116;11.660;2023-02-02T06:05:44;96022.44;;;3.66;94.28
65800;BME280;52544;48.116;11.660;2023-02-02T06:08:09;96018.28;;;3.62;95.01
65800;BME280;52544;48.116;11.660;2023-02-02T06:10:38;96002.41;;;3.65;94.61
65800;BME280;52544;48.116;11.660;2023-02-02T06:13:03;96014.66;;;3.64;93.51
65800;BME280;52544;48.116;11.660;2023-02-02T06:15:29;96016.72;;;3.75;92.50
65800;BME280;52544;48.116;11.660;2023-02-02T06:17:55;96012.34;;;3.75;92.40
65800;BME280;52544;48.116;11.660;2023-02-02T06:20:22;96026.19;;;3.78;92.84
65800;BME280;52544;48.116;11.660;2023-02-02T06:22:47;96025.28;;;3.79;93.47
65800;BME280;52544;48.116;11.660;2023-02-02T06:25:13;96011.34;;;3.78;92.26
65800;BME280;52544;48.116;11.660;2023-02-02T06:27:38;96004.38;;;3.77;92.74
65800;BME280;52544;48.116;11.660;2023-02-02T06:30:04;96012.25;;;3.77;92.04
65800;BME280;52544;48.116;11.660;2023-02-02T06:32:29;96021.56;;;3.83;91.10
65800;BME280;52544;48.116;11.660;2023-02-02T06:34:55;96027.06;;;3.78;91.22
65800;BME280;52544;48.116;11.660;2023-02-02T06:37:20;96011.53;;;3.91;90.18
65800;BME280;52544;48.116;11.660;2023-02-02T06:39:46;96001.28;;;3.86;90.48
65800;BME280;52544;48.116;11.660;2023-02-02T06:42:11;96018.47;;;3.92;89.44
65800;BME280;52544;48.116;11.660;2023-02-02T06:44:37;96018.47;;;3.92;89.15
65800;BME280;52544;48.116;11.660;2023-02-02T06:47:02;96028.94;;;3.92;89.16
65800;BME280;52544;48.116;11.660;2023-02-02T06:49:28;96031.31;;;3.96;88.31
65800;BME280;52544;48.116;11.660;2023-02-02T06:51:53;96031.22;;;3.98;88.75
65800;BME280;52544;48.116;11.660;2023-02-02T06:54:18;96046.88;;;3.99;87.83
65800;BME280;52544;48.116;11.660;2023-02-02T06:56:44;96044.31;;;3.98;88.35
65800;BME280;52544;48.116;11.660;2023-02-02T06:59:09;96052.03;;;4.01;87.86
65800;BME280;52544;48.116;11.660;2023-02-02T07:01:35;96044.69;;;4.08;87.89
65800;BME280;52544;48.116;11.660;2023-02-02T07:04:00;96053.81;;;4.00;87.99
65800;BME280;52544;48.116;11.660;2023-02-02T07:06:27;96042.16;;;4.06;87.79
65800;BME280;52544;48.116;11.660;2023-02-02T07:08:54;96046.66;;;4.04;87.87
65800;BME280;52544;48.116;11.660;2023-02-02T07:11:21;96039.03;;;3.99;88.53
65800;BME280;52544;48.116;11.660;2023-02-02T07:13:47;96058.03;;;4.03;89.06
65800;BME280;52544;48.116;11.660;2023-02-02T07:16:14;96052.78;;;4.03;88.53
65800;BME280;52544;48.116;11.660;2023-02-02T07:18:40;96051.09;;;4.02;88.67
65800;BME280;52544;48.116;11.660;2023-02-02T07:21:16;96065.38;;;3.96;89.18
65800;BME280;52544;48.116;11.660;2023-02-02T07:23:42;96048.31;;;4.05;88.11
65800;BME280;52544;48.116;11.660;2023-02-02T07:26:08;96068.59;;;4.01;88.44
65800;BME280;52544;48.116;11.660;2023-02-02T07:28:35;96078.06;;;4.04;88.30
65800;BME280;52544;48.116;11.660;2023-02-02T07:31:20;96077.28;;;4.02;88.46
65800;BME280;52544;48.116;11.660;2023-02-02T07:33:47;96087.63;;;4.05;88.13
65800;BME280;52544;48.116;11.660;2023-02-02T07:36:14;96072.66;;;4.07;87.83
65800;BME280;52544;48.116;11.660;2023-02-02T07:38:44;96083.13;;;4.07;88.50
65800;BME280;52544;48.116;11.660;2023-02-02T07:41:10;96088.06;;;4.13;87.98
65800;BME280;52544;48.116;11.660;2023-02-02T07:43:36;96090.84;;;4.10;88.56
65800;BME280;52544;48.116;11.660;2023-02-02T07:46:03;96092.69;;;4.08;88.54
65800;BME280;52544;48.116;11.660;2023-02-02T07:48:31;96093.59;;;4.07;88.96
65800;BME280;52544;48.116;11.660;2023-02-02T07:51:00;96093.59;;;4.07;89.43
65800;BME280;52544;48.116;11.660;2023-02-02T07:53:26;96085.44;;;4.13;89.09
65800;BME280;52544;48.116;11.660;2023-02-02T07:55:52;96082.03;;;4.11;89.77
65800;BME280;52544;48.116;11.660;2023-02-02T07:58:17;96097.84;;;4.10;90.87
65800;BME280;52544;48.116;11.660;2023-02-02T08:00:43;96090.16;;;4.07;91.21
65800;BME280;52544;48.116;11.660;2023-02-02T08:03:11;96104.72;;;4.12;91.13
65800;BME280;52544;48.116;11.660;2023-02-02T08:05:37;96101.56;;;4.06;91.30
65800;BME280;52544;48.116;11.660;2023-02-02T08:08:03;96097.16;;;4.06;91.50
65800;BME280;52544;48.116;11.660;2023-02-02T08:10:28;96102.31;;;4.08;92.51
65800;BME280;52544;48.116;11.660;2023-02-02T08:12:54;96106.88;;;4.04;92.59
65800;BME280;52544;48.116;11.660;2023-02-02T08:15:20;96100.81;;;4.04;92.78
65800;BME280;52544;48.116;11.660;2023-02-02T08:17:45;96110.41;;;4.03;93.75
65800;BME280;52544;48.116;11.660;2023-02-02T08:20:14;96110.63;;;3.98;93.48
65800;BME280;52544;48.116;11.660;2023-02-02T08:22:40;96131.53;;;4.00;93.28
65800;BME280;52544;48.116;11.660;2023-02-02T08:25:05;96124.56;;;3.99;94.13
65800;BME280;52544;48.116;11.660;2023-02-02T08:27:31;96129.66;;;4.02;93.80
65800;BME280;52544;48.116;11.660;2023-02-02T08:29:56;96124.44;;;4.02;93.48
65800;BME280;52544;48.116;11.660;2023-02-02T08:32:22;96139.31;;;4.01;93.31
65800;BME280;52544;48.116;11.660;2023-02-02T08:34:48;96136.69;;;4.01;93.88
65800;BME280;52544;48.116;11.660;2023-02-02T08:37:13;96153.09;;;4.05;93.86
65800;BME280;52544;48.116;11.660;2023-02-02T08:39:39;96147.06;;;4.03;93.80
65800;BME280;52544;48.116;11.660;2023-02-02T08:42:04;96167.28;;;4.01;95.02
65800;BME280;52544;48.116;11.660;2023-02-02T08:44:30;96148.38;;;3.94;95.17
65800;BME280;52544;48.116;11.660;2023-02-02T08:46:55;96145.38;;;4.02;95.32
65800;BME280;52544;48.116;11.660;2023-02-02T08:49:20;96134.84;;;4.04;95.37
65800;BME280;52544;48.116;11.660;2023-02-02T08:51:46;96135.75;;;4.03;95.49
65800;BME280;52544;48.116;11.660;2023-02-02T08:54:11;96158.34;;;4.05;96.00
65800;BME280;52544;48.116;11.660;2023-02-02T08:56:37;96163.09;;;3.97;96.47
65800;BME280;52544;48.116;11.660;2023-02-02T08:59:03;96182.91;;;4.03;97.22
65800;BME280;52544;48.116;11.660;2023-02-02T09:01:31;96175.41;;;3.95;98.26
65800;BME280;52544;48.116;11.660;2023-02-02T09:04:05;96171.28;;;3.91;99.23
65800;BME280;52544;48.116;11.660;2023-02-02T09:08:57;96160.50;;;3.80;100.00
65800;BME280;52544;48.116;11.660;2023-02-02T09:11:23;96176.06;;;3.83;100.00
65800;BME280;52544;48.116;11.660;2023-02-02T09:13:55;96177.59;;;3.87;99.11
65800;BME280;52544;48.116;11.660;2023-02-02T09:16:21;96177.59;;;3.87;98.81
65800;BME280;52544;48.116;11.660;2023-02-02T09:18:47;96163.44;;;3.91;99.13
65800;BME280;52544;48.116;11.660;2023-02-02T09:21:15;96158.34;;;3.88;98.35
65800;BME280;52544;48.116;11.660;2023-02-02T09:23:41;96163.25;;;3.94;97.57
65800;BME280;52544;48.116;11.660;2023-02-02T09:26:09;96169.44;;;3.93;97.52
65800;BME280;52544;48.116;11.660;2023-02-02T09:28:36;96177.88;;;3.98;97.42
65800;BME280;52544;48.116;11.660;2023-02-02T09:31:02;96179.59;;;3.99;97.29
65800;BME280;52544;48.116;11.660;2023-02-02T09:33:27;96181.22;;;4.01;96.64
65800;BME280;52544;48.116;11.660;2023-02-02T09:35:53;96170.03;;;3.98;96.59
65800;BME280;52544;48.116;11.660;2023-02-02T09:38:18;96171.72;;;3.99;97.16
65800;BME280;52544;48.116;11.660;2023-02-02T09:40:44;96175.22;;;3.99;96.96
65800;BME280;52544;48.116;11.660;2023-02-02T09:46:20;96168.19;;;4.00;97.06
65800;BME280;52544;48.116;11.660;2023-02-02T09:48:59;96170.66;;;4.03;97.40
65800;BME280;52544;48.116;11.660;2023-02-02T09:51:31;96169.97;;;3.99;97.85
65800;BME280;52544;48.116;11.660;2023-02-02T09:54:19;96180.38;;;4.01;97.92
65800;BME280;52544;48.116;11.660;2023-02-02T09:56:48;96178.50;;;4.03;98.55
65800;BME280;52544;48.116;11.660;2023-02-02T09:59:21;96183.44;;;4.09;98.37
65800;BME280;52544;48.116;11.660;2023-02-02T10:01:51;96178.81;;;4.14;97.69
65800;BME280;52544;48.116;11.660;2023-02-02T10:04:33;96178.06;;;4.12;98.18
65800;BME280;52544;48.116;11.660;2023-02-02T10:07:05;96191.16;;;4.12;99.12
65800;BME280;52544;48.116;11.660;2023-02-02T10:09:39;96193.69;;;4.14;98.95
65800;BME280;52544;48.116;11.660;2023-02-02T10:22:52;96177.09;;;4.48;97.26
65800;BME280;52544;48.116;11.660;2023-02-02T10:25:26;96166.53;;;4.49;96.29
65800;BME280;52544;48.116;11.660;2023-02-02T10:28:05;96164.69;;;4.51;95.77
65800;BME280;52544;48.116;11.660;2023-02-02T10:30:45;96173.38;;;4.52;96.49
65800;BME280;52544;48.116;11.660;2023-02-02T10:33:20;96164.16;;;4.45;94.93
65800;BME280;52544;48.116;11.660;2023-02-02T10:38:41;96164.78;;;4.33;94.78
65800;BME280;52544;48.116;11.660;2023-02-02T10:41:30;96168.22;;;4.33;95.18
65800;BME280;52544;48.116;11.660;2023-02-02T10:46:42;96169.72;;;4.39;94.11
65800;BME280;52544;48.116;11.660;2023-02-02T10:54:58;96169.78;;;4.37;93.83
65800;BME280;52544;48.116;11.660;2023-02-02T10:57:44;96171.41;;;4.40;92.92
65800;BME280;52544;48.116;11.660;2023-02-02T11:00:22;96164.47;;;4.39;92.65
65800;BME280;52544;48.116;11.660;2023-02-02T11:02:50;96163.44;;;4.41;92.93
65800;BME280;52544;48.116;11.660;2023-02-02T11:05:21;96160.78;;;4.43;93.45
65800;BME280;52544;48.116;11.660;2023-02-02T11:08:51;96157.47;;;4.39;93.78
65800;BME280;52544;48.116;11.660;2023-02-02T11:11:23;96155.53;;;4.43;94.13
65800;BME280;52544;48.116;11.660;2023-02-02T11:13:54;96155.19;;;4.49;94.64
65800;BME280;52544;48.116;11.660;2023-02-02T11:16:37;96154.25;;;4.50;93.52
65800;BME280;52544;48.116;11.660;2023-02-02T11:21:49;96160.13;;;4.55;93.20
65800;BME280;52544;48.116;11.660;2023-02-02T11:24:26;96164.59;;;4.53;92.83
65800;BME280;52544;48.116;11.660;2023-02-02T11:27:14;96167.22;;;4.53;93.30
65800;BME280;52544;48.116;11.660;2023-02-02T11:29:45;96159.78;;;4.61;93.09
65800;BME280;52544;48.116;11.660;2023-02-02T11:34:45;96155.09;;;4.68;93.08
65800;BME280;52544;48.116;11.660;2023-02-02T11:39:37;96151.63;;;4.67;93.18
65800;BME280;52544;48.116;11.660;2023-02-02T11:42:05;96156.69;;;4.70;93.16
65800;BME280;52544;48.116;11.660;2023-02-02T11:44:33;96146.38;;;4.67;93.56
65800;BME280;52544;48.116;11.660;2023-02-02T11:47:01;96157.97;;;4.63;93.57
65800;BME280;52544;48.116;11.660;2023-02-02T11:49:36;96150.41;;;4.57;94.83
65800;BME280;52544;48.116;11.660;2023-02-02T11:52:05;96166.13;;;4.57;94.86
65800;BME280;52544;48.116;11.660;2023-02-02T11:54:33;96156.25;;;4.62;95.48
65800;BME280;52544;48.116;11.660;2023-02-02T11:57:02;96155.78;;;4.54;95.49
65800;BME280;52544;48.116;11.660;2023-02-02T11:59:31;96146.94;;;4.57;96.73
65800;BME280;52544;48.116;11.660;2023-02-02T12:02:29;96134.59;;;4.59;95.57
65800;BME280;52544;48.116;11.660;2023-02-02T12:07:48;96143.75;;;4.67;95.98
65800;BME280;52544;48.116;11.660;2023-02-02T12:10:17;96166.25;;;4.71;94.79
65800;BME280;52544;48.116;11.660;2023-02-02T12:13:08;96139.50;;;4.65;95.94
65800;BME280;52544;48.116;11.660;2023-02-02T12:15:48;96144.06;;;4.61;96.25
65800;BME280;52544;48.116;11.660;2023-02-02T12:21:06;96137.44;;;4.54;96.60
65800;BME280;52544;48.116;11.660;2023-02-02T12:31:44;96165.06;;;4.44;97.65
65800;BME280;52544;48.116;11.660;2023-02-02T12:34:26;96152.91;;;4.43;98.37
65800;BME280;52544;48.116;11.660;2023-02-02T12:37:22;96150.44;;;4.40;98.31
65800;BME280;52544;48.116;11.660;2023-02-02T12:53:43;96184.38;;;4.25;100.00
65800;BME280;52544;48.116;11.660;2023-02-02T12:57:19;96178.97;;;4.29;100.00
65800;BME280;52544;48.116;11.660;2023-02-02T13:02:03;96187.69;;;4.29;100.00
65800;BME280;52544;48.116;11.660;2023-02-02T13:07:27;96191.31;;;4.26;100.00
65800;BME280;52544;48.116;11.660;2023-02-02T13:10:15;96193.22;;;4.23;100.00
65800;BME280;52544;48.116;11.660;2023-02-02T13:12:50;96181.22;;;4.19;100.00
65800;BME280;52544;48.116;11.660;2023-02-02T13:15:22;96180.44;;;4.17;100.00
65800;BME280;52544;48.116;11.660;2023-02-02T13:17:54;96190.38;;;4.10;100.00
65800;BME280;52544;48.116;11.660;2023-02-02T13:22:53;96199.91;;;3.94;100.00
65800;BME280;52544;48.116;11.660;2023-02-02T13:25:27;96212.25;;;3.92;100.00
65800;BME280;52544;48.116;11.660;2023-02-02T13:27:55;96206.41;;;3.87;100.00
65800;BME280;52544;48.116;11.660;2023-02-02T13:30:41;96220.34;;;3.87;100.00
65800;BME280;52544;48.116;11.660;2023-02-02T13:33:17;96223.84;;;3.86;100.00
65800;BME280;52544;48.116;11.660;2023-02-02T13:35:54;96228.41;;;3.83;100.00
65800;BME280;52544;48.116;11.660;2023-02-02T13:38:24;96222.16;;;3.85;100.00
65800;BME280;52544;48.116;11.660;2023-02-02T13:40:53;96227.19;;;3.90;100.00
65800;BME280;52544;48.116;11.660;2023-02-02T13:46:38;96225.84;;;3.81;100.00
65800;BME280;52544;48.116;11.660;2023-02-02T13:49:11;96233.78;;;3.80;100.00
65800;BME280;52544;48.116;11.660;2023-02-02T13:54:47;96240.84;;;3.78;100.00
65800;BME280;52544;48.116;11.660;2023-02-02T13:57:47;96233.94;;;3.76;100.00
65800;BME280;52544;48.116;11.660;2023-02-02T14:00:26;96238.69;;;3.68;100.00
65800;BME280;52544;48.116;11.660;2023-02-02T14:02:56;96224.97;;;3.63;100.00
65800;BME280;52544;48.116;11.660;2023-02-02T14:05:26;96238.06;;;3.63;100.00
65800;BME280;52544;48.116;11.660;2023-02-02T14:08:02;96237.22;;;3.63;100.00
65800;BME280;52544;48.116;11.660;2023-02-02T14:13:44;96254.84;;;3.59;100.00
65800;BME280;52544;48.116;11.660;2023-02-02T14:19:01;96238.19;;;3.60;100.00
65800;BME280;52544;48.116;11.660;2023-02-02T14:23:56;96262.81;;;3.56;100.00
65800;BME280;52544;48.116;11.660;2023-02-02T14:26:42;96266.28;;;3.57;100.00
65800;BME280;52544;48.116;11.660;2023-02-02T14:34:43;96272.44;;;3.56;100.00
65800;BME280;52544;48.116;11.660;2023-02-02T14:45:38;96278.38;;;3.59;100.00
65800;BME280;52544;48.116;11.660;2023-02-02T14:50:50;96285.31;;;3.60;100.00
65800;BME280;52544;48.116;11.660;2023-02-02T14:56:01;96286.38;;;3.56;100.00
65800;BME280;52544;48.116;11.660;2023-02-02T15:01:21;96276.97;;;3.52;100.00
65800;BME280;52544;48.116;11.660;2023-02-02T15:06:47;96270.03;;;3.51;100.00
65800;BME280;52544;48.116;11.660;2023-02-02T15:20:11;96288.22;;;3.54;100.00
65800;BME280;52544;48.116;11.660;2023-02-02T15:28:03;96288.88;;;3.59;100.00
65800;BME280;52544;48.116;11.660;2023-02-02T15:30:33;96292.28;;;3.61;100.00
65800;BME280;52544;48.116;11.660;2023-02-02T15:33:06;96312.16;;;3.65;100.00
65800;BME280;52544;48.116;11.660;2023-02-02T15:35:36;96315.63;;;3.66;100.00
65800;BME280;52544;48.116;11.660;2023-02-02T15:38:05;96306.91;;;3.65;100.00
65800;BME280;52544;48.116;11.660;2023-02-02T15:40:35;96310.59;;;3.61;100.00
65800;BME280;52544;48.116;11.660;2023-02-02T15:43:04;96315.88;;;3.60;100.00
65800;BME280;52544;48.116;11.660;2023-02-02T15:45:46;96322.97;;;3.58;100.00
65800;BME280;52544;48.116;11.660;2023-02-02T15:48:32;96321.25;;;3.57;100.00